Bastille Street — A8YZ6 — position and weather

sailwx.info

Track history (hours):
 
Tides and Currents Weather Stations Pressure Air Temp Water Temp Dewpoint Dewpoint Depression Visibility Wind Speed Wind Dir Waves Ship Positions

Bastille Street

Last reported at 2018-Mar-04 00:06 UTC. Time now 2018-Apr-26 13:20 UTC.
Position N 28°45' W 093°46'.
Warning: this ship's position is 53 days out of date.

Length 180 m; draft 10.5 m.

MMSI: 636015161.

Date/timePositionNaut miles runAvg speedWind from/ knotsBaromVisibWave heightAir tempDewpointWater temp
2018-Mar-04 00:06N 28°45' W 093°46'212.3
2018-Mar-03 23:59N 28°46' W 093°48'2412.3
2018-Mar-03 22:01N 29°01' W 094°10'212.2
2018-Mar-03 21:51N 29°02' W 094°12'411.5
2018-Mar-03 21:27N 29°05' W 094°16'511.3
2018-Mar-03 21:00N 29°07' W 094°21'711.6
2018-Mar-03 20:22N 29°11' W 094°28'611.9
2018-Mar-03 19:53N 29°14' W 094°33'410.6
2018-Mar-03 19:29N 29°17' W 094°37'510.7
2018-Mar-03 19:00N 29°20' W 094°42'1010.8
2018-Mar-03 18:02N 29°27' W 094°51'112.0
2018-Mar-03 17:59N 29°28' W 094°51'511.3
2018-Mar-03 17:30N 29°32' W 094°54'510.3
2018-Mar-03 17:00N 29°37' W 094°57'510.1
2018-Mar-03 16:30N 29°41' W 094°59'4 7.5
2018-Mar-03 16:00N 29°44' W 095°03'3 5.8
2018-Mar-03 15:30N 29°45' W 095°06'0 0.0
2018-Mar-01 20:24N 29°45' W 095°06'1 3.7
2018-Mar-01 20:00N 29°46' W 095°05'4 7.1
2018-Mar-01 19:30N 29°44' W 095°01'3 6.9
2018-Mar-01 19:00N 29°41' W 094°59'5 9.5
2018-Mar-01 18:30N 29°37' W 094°57'510.5
2018-Mar-01 18:00N 29°32' W 094°54'510.3
2018-Mar-01 17:30N 29°28' W 094°51'5 9.4
2018-Mar-01 17:00N 29°23' W 094°49'4 7.8
2018-Mar-01 16:30N 29°21' W 094°45'12 6.5
2018-Mar-01 14:40N 29°19' W 094°32'0 1.0
2018-Mar-01 14:23N 29°19' W 094°32'0 0.0
2018-Mar-01 13:50N 29°19' W 094°32'0 0.0
2018-Mar-01 13:23N 29°19' W 094°32'0 0.0
2018-Mar-01 12:59N 29°19' W 094°32'0 0.0
2018-Mar-01 11:17N 29°19' W 094°32'0 0.1
2018-Mar-01 10:56N 29°19' W 094°32'0 0.1
2018-Mar-01 10:29N 29°19' W 094°32'0 0.1
2018-Mar-01 09:56N 29°19' W 094°32'0 0.0
2018-Mar-01 09:26N 29°19' W 094°32'0 0.0
2018-Mar-01 08:59N 29°19' W 094°32'0 0.0
2018-Mar-01 08:26N 29°19' W 094°32'0 0.0
2018-Mar-01 07:59N 29°19' W 094°32'0 0.0
2018-Mar-01 07:29N 29°19' W 094°32'0 0.0
2018-Mar-01 06:59N 29°19' W 094°32'0 0.0
2018-Mar-01 06:29N 29°19' W 094°32'0 0.0
2018-Mar-01 05:53N 29°19' W 094°32'0 0.0
2018-Mar-01 04:50N 29°19' W 094°32'0 0.0
2018-Mar-01 04:20N 29°19' W 094°32'0 0.0
2018-Mar-01 03:59N 29°19' W 094°32'0 0.0
2018-Mar-01 03:26N 29°19' W 094°32'0 0.0
2018-Mar-01 02:53N 29°19' W 094°32'0 0.0
2018-Mar-01 02:05N 29°19' W 094°32'0 0.0
2018-Mar-01 01:56N 29°19' W 094°32'0 0.0
2018-Mar-01 01:26N 29°19' W 094°32'0 0.0
2018-Mar-01 00:59N 29°19' W 094°32'0 0.0
2018-Mar-01 00:26N 29°19' W 094°32'0 0.0
2018-Feb-28 23:53N 29°19' W 094°32'0 0.0
2018-Feb-28 23:29N 29°19' W 094°32'0 0.0
2018-Feb-28 22:59N 29°19' W 094°32'0 0.0
2018-Feb-28 22:26N 29°19' W 094°32'0 0.0
2018-Feb-28 21:59N 29°19' W 094°32'0 0.0
2018-Feb-28 21:29N 29°19' W 094°32'0 0.0
2018-Feb-28 20:56N 29°19' W 094°32'0 0.0
2018-Feb-28 20:29N 29°19' W 094°32'0 0.0
2018-Feb-28 19:53N 29°19' W 094°32'0 0.0
2018-Feb-28 19:23N 29°19' W 094°32'0 0.0
2018-Feb-28 18:50N 29°19' W 094°32'0 0.0
2018-Feb-28 15:44N 29°19' W 094°32'0 0.0
2018-Feb-28 15:20N 29°19' W 094°32'0 0.0
2018-Feb-28 14:50N 29°19' W 094°32'0 0.0
2018-Feb-28 14:29N 29°19' W 094°32'0 0.1
2018-Feb-28 13:59N 29°19' W 094°32'0 0.1
2018-Feb-28 13:23N 29°19' W 094°32'0 0.0
2018-Feb-28 12:53N 29°19' W 094°32'0 0.0
2018-Feb-28 12:29N 29°19' W 094°32'0 0.0
2018-Feb-28 11:56N 29°19' W 094°32'0 0.0
2018-Feb-28 11:29N 29°19' W 094°32'2 3.5
2018-Feb-28 11:00N 29°18' W 094°34'4 8.3
2018-Feb-28 10:30N 29°19' W 094°39'712.1
2018-Feb-28 09:57N 29°21' W 094°46'512.1
2018-Feb-28 09:30N 29°25' W 094°50'611.6
2018-Feb-28 09:00N 29°30' W 094°52'511.2
2018-Feb-28 08:30N 29°35' W 094°56'5 9.8
2018-Feb-28 08:00N 29°39' W 094°58'4 8.3
2018-Feb-28 07:30N 29°43' W 095°01'3 6.5
2018-Feb-28 07:00N 29°45' W 095°04'3 5.6
2018-Feb-28 06:28N 29°44' W 095°07'1 0.1
2018-Feb-27 20:36N 29°44' W 095°08'0 0.1
2018-Feb-27 20:30N 29°44' W 095°08'0 0.0
2018-Feb-27 20:00N 29°44' W 095°08'0 0.0
2018-Feb-27 19:30N 29°44' W 095°08'0 0.0
2018-Feb-27 19:00N 29°44' W 095°08'0 0.0
2018-Feb-27 18:30N 29°44' W 095°08'0 0.0
2018-Feb-27 18:00N 29°44' W 095°08'0 0.0
2018-Feb-27 17:30N 29°44' W 095°08'0 0.0
2018-Feb-27 17:00N 29°44' W 095°08'0 0.0
2018-Feb-27 16:30N 29°44' W 095°08'0 0.0
2018-Feb-27 16:00N 29°44' W 095°08'0 0.0
2018-Feb-27 15:18N 29°44' W 095°08'0 0.0
2018-Feb-27 15:00N 29°44' W 095°08'0 0.0
2018-Feb-27 14:30N 29°44' W 095°08'0 0.0
2018-Feb-27 14:00N 29°44' W 095°08'0 0.0
2018-Feb-27 13:30N 29°44' W 095°08'0 0.0
2018-Feb-27 13:00N 29°44' W 095°08'0 0.0
2018-Feb-27 12:30N 29°44' W 095°08'0 0.0
2018-Feb-27 12:00N 29°44' W 095°08'0 0.0
2018-Feb-27 11:30N 29°44' W 095°08'0 0.0
2018-Feb-27 11:00N 29°44' W 095°08'0 0.0
2018-Feb-27 10:30N 29°44' W 095°08'0 0.0
2018-Feb-27 10:00N 29°44' W 095°08'0 0.0
2018-Feb-27 09:30N 29°44' W 095°08'0 0.0
2018-Feb-27 09:00N 29°44' W 095°08'0 0.0
2018-Feb-27 08:30N 29°44' W 095°08'0 0.0
2018-Feb-27 07:57N 29°44' W 095°08'0 0.0
2018-Feb-27 07:27N 29°44' W 095°08'0 0.0
2018-Feb-27 07:00N 29°44' W 095°08'0 0.0
2018-Feb-27 06:27N 29°44' W 095°08'0 0.0
2018-Feb-27 06:00N 29°44' W 095°08'0 0.0
2018-Feb-27 05:30N 29°44' W 095°08'0 0.0
2018-Feb-27 05:00N 29°44' W 095°08'0 0.0
2018-Feb-27 04:30N 29°44' W 095°08'0 0.0
2018-Feb-27 04:00N 29°44' W 095°08'0 0.0
2018-Feb-27 03:27N 29°44' W 095°08'0 0.0
2018-Feb-27 03:00N 29°44' W 095°08'0 0.1
2018-Feb-27 02:30N 29°44' W 095°08'2 3.3
2018-Feb-27 02:00N 29°45' W 095°06'3 5.2
2018-Feb-27 01:30N 29°44' W 095°03'4 7.3
2018-Feb-27 01:00N 29°42' W 095°00'510.5
2018-Feb-27 00:30N 29°37' W 094°57'611.5
2018-Feb-27 00:00N 29°32' W 094°54'713.2
2018-Feb-26 23:30N 29°27' W 094°50'713.8
2018-Feb-26 23:00N 29°21' W 094°46'712.6
2018-Feb-26 22:26N 29°19' W 094°38'5 7.9
2018-Feb-26 21:48N 29°18' W 094°33'1 2.9
2018-Feb-26 21:30N 29°19' W 094°33'0 0.2
2018-Feb-26 21:00N 29°19' W 094°33'0 0.0
2018-Feb-26 20:12N 29°19' W 094°33'0 0.0
2018-Feb-26 19:54N 29°19' W 094°33'0 0.0
2018-Feb-26 19:30N 29°19' W 094°33'0 0.0
2018-Feb-26 19:00N 29°19' W 094°33'0 0.0
2018-Feb-26 18:30N 29°19' W 094°33'0 0.0
2018-Feb-26 17:57N 29°19' W 094°33'0 0.0
2018-Feb-26 17:30N 29°19' W 094°33'0 0.0
2018-Feb-26 16:57N 29°19' W 094°33'0 0.0
2018-Feb-26 16:18N 29°19' W 094°33'0 0.0
2018-Feb-26 16:00N 29°19' W 094°33'0 0.0
2018-Feb-26 15:30N 29°19' W 094°33'0 0.0
2018-Feb-26 15:00N 29°19' W 094°33'0 0.0
2018-Feb-26 14:30N 29°19' W 094°33'0 0.0
2018-Feb-26 14:00N 29°19' W 094°33'0 0.0
2018-Feb-26 13:30N 29°19' W 094°33'0 0.0
2018-Feb-26 13:00N 29°19' W 094°33'0 0.0
2018-Feb-26 12:30N 29°19' W 094°33'0 0.0
2018-Feb-26 12:00N 29°19' W 094°33'0 0.0
2018-Feb-26 11:30N 29°19' W 094°33'0 0.0
2018-Feb-26 11:00N 29°19' W 094°33'0 0.0
2018-Feb-26 10:30N 29°19' W 094°33'0 0.0
2018-Feb-26 10:00N 29°19' W 094°33'0 0.0
2018-Feb-26 09:27N 29°19' W 094°33'0 0.0
2018-Feb-26 09:00N 29°19' W 094°33'0 0.0
2018-Feb-26 08:18N 29°19' W 094°33'0 0.0
2018-Feb-26 07:57N 29°19' W 094°33'0 0.0
2018-Feb-26 07:27N 29°19' W 094°33'0 0.0
2018-Feb-26 06:21N 29°19' W 094°33'0 0.0
2018-Feb-26 05:57N 29°19' W 094°33'0 0.0
2018-Feb-26 05:27N 29°19' W 094°33'0 0.0
2018-Feb-26 04:57N 29°19' W 094°33'0 0.0
2018-Feb-26 04:27N 29°19' W 094°33'0 0.0
2018-Feb-25 23:24N 29°19' W 094°33'0 0.0
2018-Feb-25 22:54N 29°19' W 094°33'0 0.0
2018-Feb-25 22:30N 29°19' W 094°33'0 0.0
2018-Feb-25 22:00N 29°19' W 094°33'0 0.0
2018-Feb-25 21:30N 29°19' W 094°33'0 0.1
2018-Feb-25 21:00N 29°19' W 094°33'1 2.3
2018-Feb-25 20:30N 29°18' W 094°33'5 7.7
2018-Feb-25 19:50N 29°14' W 094°29'3 7.7
2018-Feb-25 19:30N 29°12' W 094°27'5 9.0
2018-Feb-25 18:59N 29°10' W 094°22'611.9
2018-Feb-25 18:30N 29°06' W 094°17'612.2
2018-Feb-25 18:00N 29°03' W 094°11'612.6
2018-Feb-25 17:30N 28°59' W 094°05'712.6
2018-Feb-25 16:58N 28°55' W 093°59'612.6
2018-Feb-25 16:28N 28°52' W 093°53'712.6
2018-Feb-25 15:54N 28°48' W 093°47'3212.6
2018-Feb-25 13:20N 28°29' W 093°17'412.9
2018-Feb-25 13:00N 28°26' W 093°13'712.8
2018-Feb-25 12:27N 28°22' W 093°06'1712.5
2018-Feb-25 11:03N 28°11' W 092°51'112.7
2018-Feb-25 11:00N 28°11' W 092°50'712.7
2018-Feb-25 10:29N 28°05' W 092°46'712.7
2018-Feb-25 09:56N 27°60' W 092°41'512.5
2018-Feb-25 09:30N 27°56' W 092°37'611.6
2018-Feb-25 08:59N 27°52' W 092°32'  
Track history (hours):
 
Tides and Currents Weather Stations Pressure Air Temp Water Temp Dewpoint Dewpoint Depression Visibility Wind Speed Wind Dir Waves Ship Positions

Bastille Street

Last reported at 2018-Mar-04 00:06 UTC. Time now 2018-Apr-26 13:20 UTC.
Position N 28°45' W 093°46'.
Warning: this ship's position is 53 days out of date.

Length 180 m; draft 10.5 m.

MMSI: 636015161.

Date/timePositionNaut miles runAvg speedWind from/ knotsBaromVisibWave heightAir tempDewpointWater temp
2018-Mar-04 00:06N 28°45' W 093°46'212.3
2018-Mar-03 23:59N 28°46' W 093°48'2412.3
2018-Mar-03 22:01N 29°01' W 094°10'212.2
2018-Mar-03 21:51N 29°02' W 094°12'411.5
2018-Mar-03 21:27N 29°05' W 094°16'511.3
2018-Mar-03 21:00N 29°07' W 094°21'711.6
2018-Mar-03 20:22N 29°11' W 094°28'611.9
2018-Mar-03 19:53N 29°14' W 094°33'410.6
2018-Mar-03 19:29N 29°17' W 094°37'510.7
2018-Mar-03 19:00N 29°20' W 094°42'1010.8
2018-Mar-03 18:02N 29°27' W 094°51'112.0
2018-Mar-03 17:59N 29°28' W 094°51'511.3
2018-Mar-03 17:30N 29°32' W 094°54'510.3
2018-Mar-03 17:00N 29°37' W 094°57'510.1
2018-Mar-03 16:30N 29°41' W 094°59'4 7.5
2018-Mar-03 16:00N 29°44' W 095°03'3 5.8
2018-Mar-03 15:30N 29°45' W 095°06'0 0.0
2018-Mar-01 20:24N 29°45' W 095°06'1 3.7
2018-Mar-01 20:00N 29°46' W 095°05'4 7.1
2018-Mar-01 19:30N 29°44' W 095°01'3 6.9
2018-Mar-01 19:00N 29°41' W 094°59'5 9.5
2018-Mar-01 18:30N 29°37' W 094°57'510.5
2018-Mar-01 18:00N 29°32' W 094°54'510.3
2018-Mar-01 17:30N 29°28' W 094°51'5 9.4
2018-Mar-01 17:00N 29°23' W 094°49'4 7.8
2018-Mar-01 16:30N 29°21' W 094°45'12 6.5
2018-Mar-01 14:40N 29°19' W 094°32'0 1.0
2018-Mar-01 14:23N 29°19' W 094°32'0 0.0
2018-Mar-01 13:50N 29°19' W 094°32'0 0.0
2018-Mar-01 13:23N 29°19' W 094°32'0 0.0
2018-Mar-01 12:59N 29°19' W 094°32'0 0.0
2018-Mar-01 11:17N 29°19' W 094°32'0 0.1
2018-Mar-01 10:56N 29°19' W 094°32'0 0.1
2018-Mar-01 10:29N 29°19' W 094°32'0 0.1
2018-Mar-01 09:56N 29°19' W 094°32'0 0.0
2018-Mar-01 09:26N 29°19' W 094°32'0 0.0
2018-Mar-01 08:59N 29°19' W 094°32'0 0.0
2018-Mar-01 08:26N 29°19' W 094°32'0 0.0
2018-Mar-01 07:59N 29°19' W 094°32'0 0.0
2018-Mar-01 07:29N 29°19' W 094°32'0 0.0
2018-Mar-01 06:59N 29°19' W 094°32'0 0.0
2018-Mar-01 06:29N 29°19' W 094°32'0 0.0
2018-Mar-01 05:53N 29°19' W 094°32'0 0.0
2018-Mar-01 04:50N 29°19' W 094°32'0 0.0
2018-Mar-01 04:20N 29°19' W 094°32'0 0.0
2018-Mar-01 03:59N 29°19' W 094°32'0 0.0
2018-Mar-01 03:26N 29°19' W 094°32'0 0.0
2018-Mar-01 02:53N 29°19' W 094°32'0 0.0
2018-Mar-01 02:05N 29°19' W 094°32'0 0.0
2018-Mar-01 01:56N 29°19' W 094°32'0 0.0
2018-Mar-01 01:26N 29°19' W 094°32'0 0.0
2018-Mar-01 00:59N 29°19' W 094°32'0 0.0
2018-Mar-01 00:26N 29°19' W 094°32'0 0.0
2018-Feb-28 23:53N 29°19' W 094°32'0 0.0
2018-Feb-28 23:29N 29°19' W 094°32'0 0.0
2018-Feb-28 22:59N 29°19' W 094°32'0 0.0
2018-Feb-28 22:26N 29°19' W 094°32'0 0.0
2018-Feb-28 21:59N 29°19' W 094°32'0 0.0
2018-Feb-28 21:29N 29°19' W 094°32'0 0.0
2018-Feb-28 20:56N 29°19' W 094°32'0 0.0
2018-Feb-28 20:29N 29°19' W 094°32'0 0.0
2018-Feb-28 19:53N 29°19' W 094°32'0 0.0
2018-Feb-28 19:23N 29°19' W 094°32'0 0.0
2018-Feb-28 18:50N 29°19' W 094°32'0 0.0
2018-Feb-28 15:44N 29°19' W 094°32'0 0.0
2018-Feb-28 15:20N 29°19' W 094°32'0 0.0
2018-Feb-28 14:50N 29°19' W 094°32'0 0.0
2018-Feb-28 14:29N 29°19' W 094°32'0 0.1
2018-Feb-28 13:59N 29°19' W 094°32'0 0.1
2018-Feb-28 13:23N 29°19' W 094°32'0 0.0
2018-Feb-28 12:53N 29°19' W 094°32'0 0.0
2018-Feb-28 12:29N 29°19' W 094°32'0 0.0
2018-Feb-28 11:56N 29°19' W 094°32'0 0.0
2018-Feb-28 11:29N 29°19' W 094°32'2 3.5
2018-Feb-28 11:00N 29°18' W 094°34'4 8.3
2018-Feb-28 10:30N 29°19' W 094°39'712.1
2018-Feb-28 09:57N 29°21' W 094°46'512.1
2018-Feb-28 09:30N 29°25' W 094°50'611.6
2018-Feb-28 09:00N 29°30' W 094°52'511.2
2018-Feb-28 08:30N 29°35' W 094°56'5 9.8
2018-Feb-28 08:00N 29°39' W 094°58'4 8.3
2018-Feb-28 07:30N 29°43' W 095°01'3 6.5
2018-Feb-28 07:00N 29°45' W 095°04'3 5.6
2018-Feb-28 06:28N 29°44' W 095°07'1 0.1
2018-Feb-27 20:36N 29°44' W 095°08'0 0.1
2018-Feb-27 20:30N 29°44' W 095°08'0 0.0
2018-Feb-27 20:00N 29°44' W 095°08'0 0.0
2018-Feb-27 19:30N 29°44' W 095°08'0 0.0
2018-Feb-27 19:00N 29°44' W 095°08'0 0.0
2018-Feb-27 18:30N 29°44' W 095°08'0 0.0
2018-Feb-27 18:00N 29°44' W 095°08'0 0.0
2018-Feb-27 17:30N 29°44' W 095°08'0 0.0
2018-Feb-27 17:00N 29°44' W 095°08'0 0.0
2018-Feb-27 16:30N 29°44' W 095°08'0 0.0
2018-Feb-27 16:00N 29°44' W 095°08'0 0.0
2018-Feb-27 15:18N 29°44' W 095°08'0 0.0
2018-Feb-27 15:00N 29°44' W 095°08'0 0.0
2018-Feb-27 14:30N 29°44' W 095°08'0 0.0
2018-Feb-27 14:00N 29°44' W 095°08'0 0.0
2018-Feb-27 13:30N 29°44' W 095°08'0 0.0
2018-Feb-27 13:00N 29°44' W 095°08'0 0.0
2018-Feb-27 12:30N 29°44' W 095°08'0 0.0
2018-Feb-27 12:00N 29°44' W 095°08'0 0.0
2018-Feb-27 11:30N 29°44' W 095°08'0 0.0
2018-Feb-27 11:00N 29°44' W 095°08'0 0.0
2018-Feb-27 10:30N 29°44' W 095°08'0 0.0
2018-Feb-27 10:00N 29°44' W 095°08'0 0.0
2018-Feb-27 09:30N 29°44' W 095°08'0 0.0
2018-Feb-27 09:00N 29°44' W 095°08'0 0.0
2018-Feb-27 08:30N 29°44' W 095°08'0 0.0
2018-Feb-27 07:57N 29°44' W 095°08'0 0.0
2018-Feb-27 07:27N 29°44' W 095°08'0 0.0
2018-Feb-27 07:00N 29°44' W 095°08'0 0.0
2018-Feb-27 06:27N 29°44' W 095°08'0 0.0
2018-Feb-27 06:00N 29°44' W 095°08'0 0.0
2018-Feb-27 05:30N 29°44' W 095°08'0 0.0
2018-Feb-27 05:00N 29°44' W 095°08'0 0.0
2018-Feb-27 04:30N 29°44' W 095°08'0 0.0
2018-Feb-27 04:00N 29°44' W 095°08'0 0.0
2018-Feb-27 03:27N 29°44' W 095°08'0 0.0
2018-Feb-27 03:00N 29°44' W 095°08'0 0.1
2018-Feb-27 02:30N 29°44' W 095°08'2 3.3
2018-Feb-27 02:00N 29°45' W 095°06'3 5.2
2018-Feb-27 01:30N 29°44' W 095°03'4 7.3
2018-Feb-27 01:00N 29°42' W 095°00'510.5
2018-Feb-27 00:30N 29°37' W 094°57'611.5
2018-Feb-27 00:00N 29°32' W 094°54'713.2
2018-Feb-26 23:30N 29°27' W 094°50'713.8
2018-Feb-26 23:00N 29°21' W 094°46'712.6
2018-Feb-26 22:26N 29°19' W 094°38'5 7.9
2018-Feb-26 21:48N 29°18' W 094°33'1 2.9
2018-Feb-26 21:30N 29°19' W 094°33'0 0.2
2018-Feb-26 21:00N 29°19' W 094°33'0 0.0
2018-Feb-26 20:12N 29°19' W 094°33'0 0.0
2018-Feb-26 19:54N 29°19' W 094°33'0 0.0
2018-Feb-26 19:30N 29°19' W 094°33'0 0.0
2018-Feb-26 19:00N 29°19' W 094°33'0 0.0
2018-Feb-26 18:30N 29°19' W 094°33'0 0.0
2018-Feb-26 17:57N 29°19' W 094°33'0 0.0
2018-Feb-26 17:30N 29°19' W 094°33'0 0.0
2018-Feb-26 16:57N 29°19' W 094°33'0 0.0
2018-Feb-26 16:18N 29°19' W 094°33'0 0.0
2018-Feb-26 16:00N 29°19' W 094°33'0 0.0
2018-Feb-26 15:30N 29°19' W 094°33'0 0.0
2018-Feb-26 15:00N 29°19' W 094°33'0 0.0
2018-Feb-26 14:30N 29°19' W 094°33'0 0.0
2018-Feb-26 14:00N 29°19' W 094°33'0 0.0
2018-Feb-26 13:30N 29°19' W 094°33'0 0.0
2018-Feb-26 13:00N 29°19' W 094°33'0 0.0
2018-Feb-26 12:30N 29°19' W 094°33'0 0.0
2018-Feb-26 12:00N 29°19' W 094°33'0 0.0
2018-Feb-26 11:30N 29°19' W 094°33'0 0.0
2018-Feb-26 11:00N 29°19' W 094°33'0 0.0
2018-Feb-26 10:30N 29°19' W 094°33'0 0.0
2018-Feb-26 10:00N 29°19' W 094°33'0 0.0
2018-Feb-26 09:27N 29°19' W 094°33'0 0.0
2018-Feb-26 09:00N 29°19' W 094°33'0 0.0
2018-Feb-26 08:18N 29°19' W 094°33'0 0.0
2018-Feb-26 07:57N 29°19' W 094°33'0 0.0
2018-Feb-26 07:27N 29°19' W 094°33'0 0.0
2018-Feb-26 06:21N 29°19' W 094°33'0 0.0
2018-Feb-26 05:57N 29°19' W 094°33'0 0.0
2018-Feb-26 05:27N 29°19' W 094°33'0 0.0
2018-Feb-26 04:57N 29°19' W 094°33'0 0.0
2018-Feb-26 04:27N 29°19' W 094°33'0 0.0
2018-Feb-25 23:24N 29°19' W 094°33'0 0.0
2018-Feb-25 22:54N 29°19' W 094°33'0 0.0
2018-Feb-25 22:30N 29°19' W 094°33'0 0.0
2018-Feb-25 22:00N 29°19' W 094°33'0 0.0
2018-Feb-25 21:30N 29°19' W 094°33'0 0.1
2018-Feb-25 21:00N 29°19' W 094°33'1 2.3
2018-Feb-25 20:30N 29°18' W 094°33'5 7.7
2018-Feb-25 19:50N 29°14' W 094°29'3 7.7
2018-Feb-25 19:30N 29°12' W 094°27'5 9.0
2018-Feb-25 18:59N 29°10' W 094°22'611.9
2018-Feb-25 18:30N 29°06' W 094°17'612.2
2018-Feb-25 18:00N 29°03' W 094°11'612.6
2018-Feb-25 17:30N 28°59' W 094°05'712.6
2018-Feb-25 16:58N 28°55' W 093°59'612.6
2018-Feb-25 16:28N 28°52' W 093°53'712.6
2018-Feb-25 15:54N 28°48' W 093°47'3212.6
2018-Feb-25 13:20N 28°29' W 093°17'412.9
2018-Feb-25 13:00N 28°26' W 093°13'712.8
2018-Feb-25 12:27N 28°22' W 093°06'1712.5
2018-Feb-25 11:03N 28°11' W 092°51'112.7
2018-Feb-25 11:00N 28°11' W 092°50'712.7
2018-Feb-25 10:29N 28°05' W 092°46'712.7
2018-Feb-25 09:56N 27°60' W 092°41'512.5
2018-Feb-25 09:30N 27°56' W 092°37'611.6
2018-Feb-25 08:59N 27°52' W 092°32'  

Dump ship's entire track history